• Join FlightAware (Why Join?)
  • Login
  • US Flag 
08:13PM EDT


 

Airport Tracker/Info


-or-


 

Live Flight TrackerFlight Track Log ✈ N119BJ ✈ 15-Oct-2013 ✈ KHPN - KACK

Flight Track Log - Related Links

Times and Time Zones

All times are in EDT time to prevent confusion due to time zone crossing. See the N119BJ flight status page for this flight to view local times or setup timezone preferences in your user account.

Time Position Orientation Groundspeed Altitude Reporting Facility
EDT Latitude Longitude Course Direction KTS MPH feet Rate Location/Type
10:09AM 41.0833 -73.6667 56° Northeast 119 137 1,800  Level New York TRACON
10:10AM 41.1000 -73.6333 56° Northeast 122 140 2,400 300 Climbing New York TRACON
10:11AM 41.1000 -73.5833 90° East 140 161 2,500 360 Climbing New York TRACON
10:12AM 41.1000 -73.5333 90° East 120 138 3,200 660 Climbing New York TRACON
10:13AM 41.1000 -73.4833 90° East 118 136 3,900 660 Climbing New York TRACON
10:14AM 41.1000 -73.4500 90° East 125 144 4,600 600 Climbing New York TRACON
10:15AM 41.1167 -73.4000 66° East 127 146 5,200 660 Climbing New York TRACON
10:16AM 41.1167 -73.3500 90° East 129 148 6,000 840 Climbing New York TRACON
10:17AM 41.1167 -73.3000 90° East 119 137 6,900 780 Climbing New York TRACON
10:18AM 41.1167 -73.2667 90° East 129 148 7,600 300 Climbing New York TRACON
10:19AM 41.1167 -73.2000 90° East 155 178 7,500 -60 Descending New York TRACON
10:20AM 41.1167 -73.1500 90° East 149 171 7,500  Level New York TRACON
10:21AM 41.1333 -73.1000 66° East 145 167 7,500  Level New York TRACON
10:22AM 41.1333 -73.0500 90° East 143 165 7,500  Level New York TRACON
10:23AM 41.1333 -73.0000 90° East 145 167 7,500  Level New York TRACON
10:24AM 41.1333 -72.9500 90° East 147 169 7,500  Level New York TRACON
10:25AM 41.1333 -72.9000 90° East 143 165 7,500  Level New York TRACON
10:26AM 41.1333 -72.8500 90° East 142 163 7,500  Level New York TRACON
10:27AM 41.1500 -72.8000 66° East 146 168 7,500  Level New York TRACON
10:28AM 41.1500 -72.7500 90° East 145 167 7,500  Level New York TRACON
10:29AM 41.1500 -72.6833 90° East 151 174 7,500  Level New York TRACON
10:30AM 41.1500 -72.6333 90° East 150 173 7,500  Level New York TRACON
10:31AM 41.1500 -72.5833 90° East 153 176 7,500  Level New York TRACON
10:32AM 41.1500 -72.5333 90° East 148 170 7,500  Level New York TRACON
10:33AM 41.1667 -72.4667 72° East 148 170 7,500  Level New York TRACON
10:35AM 41.1605 -72.3927 96° East  Level FlightAware Approximate
10:36AM 41.1686 -72.3106 87° East 149 171 7,500  Level Boston Center
10:38AM 41.1706 -72.2222 88° East 146 168 7,500  Level Boston Center
10:39AM 41.1725 -72.1617 88° East 146 168 7,500  Level Boston Center
10:40AM 41.1767 -72.1092 84° East 141 162 7,500  Level Boston Center
10:41AM 41.1786 -72.0567 87° East 147 169 7,500  Level Boston Center
10:42AM 41.1605 -72.0312 87° East  Level FlightAware Approximate
10:42AM 41.1806 -72.0181 86° East 145 167 7,500  Level Boston Center
10:43AM 41.1822 -71.9658 88° East 144 166 7,500  Level Boston Center
10:44AM 41.1861 -71.9106 85° East 141 162 7,500  Level Boston Center
10:45AM 41.1861 -71.8636 90° East 144 166 7,500  Level Boston Center
10:46AM 41.1900 -71.8083 85° East 146 168 7,500  Level Boston Center
10:47AM 41.1917 -71.7561 88° East 150 173 7,500  Level Boston Center
10:48AM 41.1933 -71.7036 88° East 142 163 7,500  Level Boston Center
10:49AM 41.1950 -71.6483 88° East 146 168 7,500  Level Boston Center
10:50AM 41.1969 -71.5986 87° East 143 165 7,500  Level Boston Center
10:51AM 41.2025 -71.5242 84° East 142 163 7,500  Level Boston Center
10:52AM 41.2022 -71.4939 91° East 144 166 7,500  Level Boston Center
10:53AM 41.2039 -71.4358 88° East 140 161 7,500  Level Boston Center
10:54AM 41.2056 -71.3833 88° East 143 165 7,500  Level Boston Center
10:55AM 41.2092 -71.3308 85° East 142 163 7,500  Level Boston Center
10:57AM 41.2037 -71.2418 95° East  Level FlightAware Approximate
11:04AM 41.2209 -70.8889 87° East  Level FlightAware Approximate
11:05AM 41.2225 -70.8384 88° East  Level FlightAware Approximate
11:06AM 41.2241 -70.7879 88° East  Level FlightAware Approximate
11:07AM 41.2257 -70.7373 88° East  Level FlightAware Approximate
11:08AM 41.2273 -70.6868 88° East  Level FlightAware Approximate
11:09AM 41.2288 -70.6363 88° East  Level FlightAware Approximate
11:10AM 41.2303 -70.5857 88° East  Level FlightAware Approximate
11:11AM 41.2318 -70.5352 88° East  Level FlightAware Approximate
11:12AM 41.2333 -70.4847 88° East  Level FlightAware Approximate
11:13AM 41.2333 -70.4341 90° East  Level FlightAware Approximate
11:14AM 41.2334 -70.3835 90° East  Level FlightAware Approximate
11:15AM 41.2334 -70.3329 90° East  Level FlightAware Approximate
11:16AM 41.2334 -70.2823 90° East  Level FlightAware Approximate
11:17AM 41.2333 -70.2318 90° East  Level FlightAware Approximate
11:18AM 41.2333 -70.1812 90° East  Level FlightAware Approximate
11:19AM 41.2384 -70.1312 79° East  Level FlightAware Approximate
11:20AM 41.2455 -70.0816 79° East  Level FlightAware Approximate
11:21AM 41.2500 -70.0500 79° East  Level FlightAware Approximate
11:22AM 41.2530 -70.0599 79° East  Level Estimated
11:23AM 41.2530 -70.0599 79° East  Level Estimated
11:24AM 41.2530 -70.0599 79° East  Level Estimated
11:25AM 41.2530 -70.0599 79° East  Level Estimated
11:26AM 41.2530 -70.0599 79° East  Level Estimated
11:27AM 41.2530 -70.0599 79° East  Level Estimated
11:28AM 41.2530 -70.0599 79° East  Level Estimated
11:29AM 41.2530 -70.0599 79° East  Level Estimated
11:30AM 41.2530 -70.0599 79° East  Level Estimated
11:31AM 41.2530 -70.0599 79° East  Level Estimated